KMGR

Moultrie Municipal Airport

Moultrie, Georgia, USA
METAR KMGR 191555Z AUTO 17008KT 10SM CLR 17/12 A2999 RMK AO2
Observed Flight Rules
Jan-19 @ 15:55 UTC (45 minutes ago) Visual Flight Rules
Wind Visibility Clouds
170° at 8 knots 10 miles
  • Clear skies
Temperatures Readings
Current 17°C / 63°F
Dewpoint 12°C / 54°F
Humidity 73%
Altimeter 29.99" Hg
Pressure 1015.62 hPa
Elevation 90
METAR KMGR 191555Z AUTO 17008KT 10SM CLR 17/12 A2999 RMK AO2
Observed Flight Rules
Jan-19 @ 15:55 UTC
(45 minutes ago)
VFR
Wind Visibility
170° at 8 knots 10 miles
Clouds
  • Clear skies
Temperature Dewpoint
17°C / 63°F 12°C / 54°F
Humidity Altimeter Pressure
73% 29.99" Hg 1015.62 hPa